createdAt,value
2023-01-20T05:02:47.331Z,26.30
2023-01-20T05:05:14.523Z,24.60
2023-01-20T05:07:41.312Z,25.97
2023-01-20T05:10:08.569Z,26.65
2023-01-20T05:12:35.147Z,27.23
2023-01-20T05:15:01.744Z,26.95
2023-01-20T05:17:28.430Z,26.98
2023-01-20T05:19:54.950Z,25.87
2023-01-20T05:22:21.485Z,26.88
2023-01-20T05:24:48.108Z,25.77
2023-01-20T05:27:14.877Z,26.00
2023-01-20T05:29:41.411Z,24.70
2023-01-20T05:32:08.035Z,25.53
2023-01-20T05:34:34.555Z,28.35
2023-01-20T05:37:01.088Z,26.77
2023-01-20T05:39:27.825Z,26.92
2023-01-20T05:41:55.159Z,27.75
2023-01-20T05:44:21.663Z,26.17
2023-01-20T05:46:48.253Z,24.38
2023-01-20T05:49:14.792Z,25.90
2023-01-20T05:51:41.315Z,25.20
2023-01-20T05:54:07.897Z,25.85
2023-01-20T05:56:34.492Z,25.13
2023-01-20T05:59:01.106Z,25.88
2023-01-20T06:01:28.077Z,24.48
2023-01-20T06:03:54.866Z,24.50
2023-01-20T06:06:21.566Z,24.08
2023-01-20T06:08:49.619Z,23.53
2023-01-20T06:11:17.884Z,23.08
2023-01-20T06:13:46.561Z,21.88
2023-01-20T06:16:13.376Z,23.15
2023-01-20T06:18:40.143Z,22.88
2023-01-20T06:21:06.740Z,23.10
2023-01-20T06:23:33.619Z,22.42
2023-01-20T06:26:05.939Z,22.23
2023-01-20T06:28:35.904Z,22.77
2023-01-20T06:31:07.912Z,23.45
2023-01-20T06:33:35.240Z,23.60
2023-01-20T06:36:02.546Z,22.60
2023-01-20T06:38:31.994Z,22.63
2023-01-20T06:41:03.240Z,22.58
2023-01-20T06:43:34.088Z,22.27
2023-01-20T06:46:02.537Z,23.40
2023-01-20T06:48:29.888Z,20.70
2023-01-20T06:51:03.631Z,21.38
2023-01-20T06:53:30.246Z,21.70
2023-01-20T06:55:57.929Z,21.25
2023-01-20T06:58:25.943Z,20.83
2023-01-20T07:00:53.241Z,21.85
2023-01-20T07:03:19.978Z,22.00
2023-01-20T07:06:01.649Z,22.15
2023-01-20T07:08:28.885Z,21.52
2023-01-20T07:10:56.344Z,21.77
2023-01-20T07:13:23.024Z,23.33
2023-01-20T07:15:49.655Z,33.28
2023-01-20T07:18:16.211Z,21.88
2023-01-20T07:20:43.858Z,23.48
2023-01-20T07:23:10.490Z,28.83
2023-01-20T07:25:38.138Z,24.13
2023-01-20T07:28:05.056Z,24.33
2023-01-20T07:30:31.746Z,22.27
2023-01-20T07:32:58.286Z,21.25
2023-01-20T07:35:24.902Z,21.27
2023-01-20T07:37:51.485Z,23.98
2023-01-20T07:40:18.535Z,22.67
2023-01-20T07:42:45.083Z,21.88
2023-01-20T07:45:11.881Z,22.00
2023-01-20T07:47:38.524Z,25.10
2023-01-20T07:50:06.526Z,22.17
2023-01-20T07:52:33.127Z,22.77
2023-01-20T07:54:59.661Z,25.05
2023-01-20T07:57:26.366Z,24.63
2023-01-20T07:59:52.906Z,29.33
2023-01-20T08:02:28.060Z,21.89
2023-01-20T08:04:54.669Z,21.80
2023-01-20T08:07:21.281Z,20.63
2023-01-20T08:09:48.628Z,18.85
2023-01-20T08:12:15.208Z,19.17
2023-01-20T08:14:41.747Z,19.20
2023-01-20T08:17:08.297Z,20.05
2023-01-20T08:19:34.821Z,19.60
2023-01-20T08:22:01.449Z,18.05
2023-01-20T08:24:28.035Z,18.48
2023-01-20T08:26:54.567Z,17.10
2023-01-20T08:29:21.124Z,16.67
2023-01-20T08:31:47.785Z,16.17
2023-01-20T08:34:14.747Z,16.75
2023-01-20T08:36:41.825Z,14.85
2023-01-20T08:39:13.113Z,16.10
2023-01-20T08:41:41.985Z,16.70
2023-01-20T08:44:09.650Z,15.27
2023-01-20T08:46:40.500Z,15.25
2023-01-20T08:49:16.937Z,15.07
2023-01-20T08:51:45.084Z,15.87
2023-01-20T08:54:11.713Z,15.65
2023-01-20T08:56:38.341Z,15.48
2023-01-20T08:59:05.218Z,14.98
2023-01-20T09:01:35.941Z,14.27
2023-01-20T09:04:06.220Z,14.70
2023-01-20T09:06:44.257Z,15.00
2023-01-20T09:09:11.733Z,14.35
2023-01-20T09:11:39.997Z,14.23
2023-01-20T09:14:06.934Z,15.10
2023-01-20T09:16:33.497Z,13.77
2023-01-20T09:19:00.127Z,13.63
2023-01-20T09:21:27.239Z,13.45
2023-01-20T09:23:53.855Z,13.32
2023-01-20T09:26:34.988Z,13.00
2023-01-20T09:29:09.501Z,12.77
2023-01-20T09:31:44.425Z,12.55
2023-01-20T09:34:15.379Z,13.15
2023-01-20T09:36:42.024Z,11.32
2023-01-20T09:39:27.761Z,12.07
2023-01-20T09:42:13.110Z,11.80
2023-01-20T09:44:50.206Z,11.60
2023-01-20T09:47:31.363Z,11.38
2023-01-20T09:50:38.043Z,10.93
2023-01-20T09:53:32.908Z,10.85
2023-01-20T09:56:18.329Z,10.60
2023-01-20T09:59:00.913Z,10.10
2023-01-20T10:01:43.151Z,10.98
2023-01-20T10:04:13.639Z,10.48
2023-01-20T10:06:51.658Z,9.85
2023-01-20T10:09:33.582Z,9.60
2023-01-20T10:12:10.993Z,9.10
2023-01-20T10:14:45.191Z,8.55
2023-01-20T10:17:23.114Z,8.90
2023-01-20T10:20:03.928Z,9.18
2023-01-20T10:22:57.523Z,8.67
2023-01-20T10:25:30.563Z,8.73
2023-01-20T10:28:08.125Z,8.13
2023-01-20T10:30:36.550Z,8.60
2023-01-20T10:33:10.730Z,9.32
2023-01-20T10:35:51.627Z,9.50
2023-01-20T10:38:26.768Z,10.15
2023-01-20T10:41:03.399Z,9.70
2023-01-20T10:43:30.753Z,9.93
2023-01-20T10:46:20.493Z,9.77
2023-01-20T10:49:09.122Z,9.33
2023-01-20T10:51:54.428Z,9.38
2023-01-20T10:54:35.853Z,10.20
2023-01-20T10:57:06.674Z,10.80
2023-01-20T10:59:44.617Z,11.02
2023-01-20T11:02:21.308Z,11.33
2023-01-20T11:04:55.187Z,10.85
2023-01-20T11:07:22.259Z,11.50
2023-01-20T11:09:49.467Z,11.00
2023-01-20T11:12:23.124Z,11.13
2023-01-20T11:14:49.814Z,11.27
2023-01-20T11:17:20.431Z,12.63
2023-01-20T11:19:58.534Z,11.32
2023-01-20T11:22:30.095Z,12.25
2023-01-20T11:25:01.604Z,12.40
2023-01-20T11:27:33.437Z,12.13
2023-01-20T11:30:03.246Z,12.50
2023-01-20T11:32:40.098Z,12.45
2023-01-20T11:35:26.185Z,12.35
2023-01-20T11:37:52.797Z,12.55
2023-01-20T11:40:27.665Z,13.93
2023-01-20T11:42:55.150Z,13.75
2023-01-20T11:45:34.973Z,13.00
2023-01-20T11:48:16.139Z,14.52
2023-01-20T11:50:43.049Z,14.77
2023-01-20T11:53:23.196Z,14.90
2023-01-20T11:55:56.109Z,14.20
2023-01-20T11:58:47.668Z,15.85
2023-01-20T12:01:23.162Z,15.50
2023-01-20T12:03:55.943Z,15.77
2023-01-20T12:06:33.781Z,15.97
2023-01-20T12:09:05.728Z,15.10
2023-01-20T12:11:38.673Z,14.40
2023-01-20T12:14:20.322Z,14.57
2023-01-20T12:17:29.844Z,14.57
2023-01-20T12:20:22.269Z,16.60
2023-01-20T12:23:08.407Z,17.33
2023-01-20T12:25:57.723Z,16.63
2023-01-20T12:28:42.483Z,16.73
2023-01-20T12:31:13.701Z,15.95
2023-01-20T12:33:44.137Z,14.17
2023-01-20T12:36:38.703Z,14.23
2023-01-20T12:39:34.109Z,15.57
2023-01-20T12:42:32.585Z,15.50
2023-01-20T12:45:15.535Z,15.52
2023-01-20T12:48:15.794Z,15.63
2023-01-20T12:50:54.391Z,14.82
2023-01-20T12:53:39.247Z,14.35
2023-01-20T12:56:21.167Z,13.80
2023-01-20T12:59:07.180Z,14.75
2023-01-20T13:01:54.284Z,13.97
2023-01-20T13:05:01.629Z,14.38
2023-01-20T13:08:05.767Z,14.25
2023-01-20T13:11:10.301Z,14.20
2023-01-20T13:13:58.177Z,13.00
2023-01-20T13:16:47.268Z,14.38
2023-01-20T13:19:19.600Z,13.48
2023-01-20T13:21:59.511Z,14.10
2023-01-20T13:24:34.925Z,13.75
2023-01-20T13:27:02.192Z,13.60
2023-01-20T13:29:43.450Z,11.93
2023-01-20T13:32:33.806Z,13.63
2023-01-20T13:35:02.466Z,14.30
2023-01-20T13:37:33.169Z,12.07
2023-01-20T13:40:00.603Z,11.18
2023-01-20T13:42:48.815Z,12.65
2023-01-20T13:45:19.437Z,12.75
2023-01-20T13:47:59.941Z,12.13
2023-01-20T13:50:31.083Z,12.50
2023-01-20T13:52:57.675Z,13.02
2023-01-20T13:55:45.140Z,11.95
2023-01-20T13:58:24.312Z,9.95
2023-01-20T14:00:57.348Z,8.40
2023-01-20T14:03:35.302Z,8.65
2023-01-20T14:06:07.029Z,7.70
2023-01-20T14:08:46.891Z,9.18
2023-01-20T14:11:15.114Z,10.50
2023-01-20T14:13:45.129Z,10.67
2023-01-20T14:16:30.044Z,9.48
2023-01-20T14:19:32.444Z,8.43
2023-01-20T14:22:03.216Z,8.82
2023-01-20T14:24:43.962Z,8.80
2023-01-20T14:27:24.627Z,9.40
2023-01-20T14:29:53.207Z,10.93
2023-01-20T14:32:26.175Z,9.55
2023-01-20T14:34:53.465Z,8.90
2023-01-20T14:37:32.000Z,9.70
2023-01-20T14:40:06.267Z,12.07
2023-01-20T14:42:33.014Z,13.45
2023-01-20T14:44:59.608Z,13.32
2023-01-20T14:47:27.355Z,11.43
2023-01-20T14:49:54.803Z,10.65
2023-01-20T14:52:28.869Z,11.93
2023-01-20T14:54:56.520Z,12.13
2023-01-20T14:57:43.450Z,11.98
2023-01-20T15:00:33.957Z,12.90
2023-01-20T15:03:12.075Z,12.73
2023-01-20T15:05:57.131Z,12.43
2023-01-20T15:09:05.235Z,12.02
2023-01-20T15:11:33.579Z,12.88
2023-01-20T15:14:04.886Z,18.27
2023-01-20T15:16:44.030Z,15.27
2023-01-20T15:19:16.743Z,12.47
2023-01-20T15:21:54.220Z,13.40
2023-01-20T15:24:31.537Z,12.50
2023-01-20T15:27:02.981Z,13.35
2023-01-20T15:29:32.515Z,11.82
2023-01-20T15:32:01.165Z,13.43
2023-01-20T15:34:30.146Z,12.48
2023-01-20T15:36:56.699Z,13.98
2023-01-20T15:39:25.992Z,13.77
2023-01-20T15:41:55.119Z,14.18
2023-01-20T15:44:22.483Z,13.27
2023-01-20T15:46:49.086Z,14.25
2023-01-20T15:49:16.046Z,14.07
2023-01-20T15:51:43.645Z,13.02
2023-01-20T15:54:11.470Z,12.65
2023-01-20T15:56:40.910Z,13.97
2023-01-20T15:59:13.120Z,14.27
2023-01-20T16:01:39.942Z,13.48
2023-01-20T16:04:06.627Z,14.70
2023-01-20T16:06:34.228Z,14.35
2023-01-20T16:09:02.440Z,13.43
2023-01-20T16:11:29.007Z,13.75
2023-01-20T16:13:55.651Z,13.80
2023-01-20T16:16:23.902Z,13.60
2023-01-20T16:18:50.535Z,14.32
2023-01-20T16:21:19.803Z,14.63
2023-01-20T16:23:46.430Z,13.88
2023-01-20T16:26:29.826Z,14.52
2023-01-20T16:28:58.044Z,13.32
2023-01-20T16:31:26.051Z,13.48
2023-01-20T16:33:53.471Z,13.67
2023-01-20T16:36:22.192Z,13.35
2023-01-20T16:38:49.951Z,13.45
2023-01-20T16:41:25.297Z,12.10
2023-01-20T16:43:53.190Z,13.05
2023-01-20T16:46:25.586Z,11.97
2023-01-20T16:48:54.313Z,13.13
2023-01-20T16:51:22.903Z,13.45
2023-01-20T16:53:49.626Z,12.35
2023-01-20T16:56:21.831Z,12.85
2023-01-20T16:58:50.107Z,12.27
2023-01-20T17:01:21.100Z,13.10
2023-01-20T17:03:48.190Z,11.20
2023-01-20T17:06:17.973Z,12.90
2023-01-20T17:08:46.174Z,11.95
2023-01-20T17:11:19.002Z,11.67
2023-01-20T17:13:45.891Z,11.45
2023-01-20T17:16:12.770Z,10.63
2023-01-20T17:18:44.708Z,11.13
2023-01-20T17:21:12.826Z,9.98
2023-01-20T17:23:39.974Z,10.60
2023-01-20T17:26:08.574Z,12.55
2023-01-20T17:28:38.758Z,10.05
2023-01-20T17:31:06.845Z,10.82
2023-01-20T17:33:34.114Z,11.88
2023-01-20T17:36:02.979Z,10.23
2023-01-20T17:38:31.241Z,10.88
2023-01-20T17:41:04.703Z,11.00
2023-01-20T17:43:36.485Z,11.00
2023-01-20T17:46:18.881Z,11.27
2023-01-20T17:48:46.386Z,10.23
2023-01-20T17:51:17.966Z,11.43
2023-01-20T17:53:44.846Z,12.00
2023-01-20T17:56:13.567Z,11.40
2023-01-20T17:58:41.610Z,10.13
2023-01-20T18:01:20.221Z,11.17
2023-01-20T18:03:49.353Z,11.20
2023-01-20T18:06:17.430Z,11.70
2023-01-20T18:08:44.813Z,12.43
2023-01-20T18:11:15.307Z,12.20
2023-01-20T18:13:44.915Z,13.23
2023-01-20T18:16:13.741Z,12.05
2023-01-20T18:18:41.415Z,11.73
2023-01-20T18:21:20.077Z,12.70
2023-01-20T18:23:48.062Z,12.93
2023-01-20T18:26:16.919Z,12.93
2023-01-20T18:28:44.008Z,12.90
2023-01-20T18:31:13.014Z,13.20
2023-01-20T18:33:44.454Z,12.35
2023-01-20T18:36:14.835Z,13.05
2023-01-20T18:38:43.194Z,13.47
2023-01-20T18:41:11.259Z,13.65
2023-01-20T18:43:38.349Z,14.30
2023-01-20T18:46:06.173Z,15.05
2023-01-20T18:48:33.066Z,13.45
2023-01-20T18:51:01.110Z,14.40
2023-01-20T18:53:28.868Z,14.80
2023-01-20T18:56:03.900Z,15.25
2023-01-20T18:58:30.873Z,15.82
2023-01-20T19:01:11.858Z,15.82
2023-01-20T19:03:39.255Z,14.73
2023-01-20T19:06:15.071Z,14.05
2023-01-20T19:08:43.529Z,15.05
2023-01-20T19:11:18.951Z,15.20
2023-01-20T19:13:48.709Z,15.88
2023-01-20T19:16:16.592Z,15.40
2023-01-20T19:18:44.863Z,15.65
2023-01-20T19:21:17.433Z,15.95
2023-01-20T19:23:44.171Z,17.38
2023-01-20T19:26:13.078Z,17.85
2023-01-20T19:28:40.399Z,18.00
2023-01-20T19:31:12.075Z,21.60
2023-01-20T19:33:39.225Z,22.98
2023-01-20T19:36:08.116Z,19.52
2023-01-20T19:38:35.489Z,20.90
2023-01-20T19:41:22.944Z,19.13
2023-01-20T19:43:57.314Z,19.05
2023-01-20T19:46:26.699Z,18.77
2023-01-20T19:48:55.164Z,19.92
2023-01-20T19:51:21.775Z,19.77
2023-01-20T19:53:50.223Z,19.90
2023-01-20T19:56:19.071Z,19.55
2023-01-20T19:58:47.692Z,20.48
2023-01-20T20:01:21.852Z,20.25
2023-01-20T20:03:49.823Z,20.85
2023-01-20T20:06:33.968Z,21.47
2023-01-20T20:09:11.069Z,20.75
2023-01-20T20:11:38.528Z,21.05
2023-01-20T20:14:07.328Z,22.50
2023-01-20T20:16:36.285Z,20.08
2023-01-20T20:19:03.514Z,20.27
2023-01-20T20:21:30.124Z,21.35
2023-01-20T20:23:59.162Z,21.90
2023-01-20T20:26:29.891Z,24.02
2023-01-20T20:28:58.259Z,25.02
2023-01-20T20:31:29.460Z,26.53
2023-01-20T20:33:57.455Z,25.38
2023-01-20T20:36:24.132Z,23.77
2023-01-20T20:38:51.629Z,24.02
2023-01-20T20:41:18.335Z,22.63
2023-01-20T20:43:45.073Z,21.77
2023-01-20T20:46:14.969Z,23.10
2023-01-20T20:48:41.772Z,22.17
2023-01-20T20:51:14.663Z,23.73
2023-01-20T20:53:41.952Z,21.52
2023-01-20T20:56:16.227Z,22.33
2023-01-20T20:58:59.996Z,20.33
2023-01-20T21:01:29.023Z,20.77
2023-01-20T21:03:57.653Z,23.00
2023-01-20T21:06:25.158Z,22.10
2023-01-20T21:08:52.070Z,15.73
2023-01-20T21:11:20.205Z,20.90
2023-01-20T21:13:49.222Z,20.50
2023-01-20T21:16:17.637Z,20.95
2023-01-20T21:18:44.189Z,23.50
2023-01-20T21:21:13.387Z,21.80
2023-01-20T21:23:43.292Z,22.40
2023-01-20T21:26:13.236Z,20.58
2023-01-20T21:28:40.814Z,19.63
2023-01-20T21:31:10.086Z,20.75
2023-01-20T21:33:38.300Z,19.37
2023-01-20T21:36:07.097Z,19.58
2023-01-20T21:38:33.776Z,21.20
2023-01-20T21:41:08.303Z,19.27
2023-01-20T21:43:55.713Z,19.77
2023-01-20T21:46:23.368Z,21.00
2023-01-20T21:49:08.810Z,19.20
2023-01-20T21:51:54.257Z,19.63
2023-01-20T21:54:20.815Z,19.08
2023-01-20T21:56:48.364Z,19.70
2023-01-20T21:59:15.112Z,19.73
2023-01-20T22:01:41.834Z,20.15
2023-01-20T22:04:09.177Z,20.00
2023-01-20T22:06:35.740Z,19.75
2023-01-20T22:09:02.309Z,18.95
2023-01-20T22:11:29.004Z,17.63
2023-01-20T22:13:58.387Z,18.85
2023-01-20T22:16:25.840Z,18.02
2023-01-20T22:18:53.836Z,18.05
2023-01-20T22:21:22.240Z,20.67
2023-01-20T22:23:49.030Z,19.23
2023-01-20T22:26:15.621Z,22.02
2023-01-20T22:28:42.688Z,20.85
2023-01-20T22:31:17.162Z,20.30
2023-01-20T22:33:43.840Z,21.00
2023-01-20T22:36:10.347Z,21.40
2023-01-20T22:38:36.939Z,21.02
2023-01-20T22:41:08.703Z,19.98
2023-01-20T22:43:37.777Z,19.42
2023-01-20T22:46:05.102Z,19.92
2023-01-20T22:48:34.792Z,19.37
2023-01-20T22:51:05.728Z,18.67
2023-01-20T22:53:32.532Z,18.70
2023-01-20T22:56:12.042Z,19.95
2023-01-20T22:58:39.347Z,20.75
2023-01-20T23:01:15.614Z,18.70
2023-01-20T23:03:42.312Z,19.50
2023-01-20T23:06:09.629Z,18.90
2023-01-20T23:08:36.393Z,20.75
2023-01-20T23:11:08.180Z,19.83
2023-01-20T23:13:35.700Z,21.40
2023-01-20T23:16:04.742Z,19.08
2023-01-20T23:18:31.960Z,19.85
2023-01-20T23:20:58.824Z,19.45
2023-01-20T23:23:26.431Z,19.05
2023-01-20T23:26:00.912Z,20.70
2023-01-20T23:28:27.478Z,19.50
2023-01-20T23:31:09.128Z,19.10
